Time;durP1;ratioP1;P1;durP2;ratioP2;P2;SDS_P1;SDS_P2;PMS_P1;PMS_P2;Temp;Humidity;BMP_temperature;BMP_pressure;BME280_temperature;BME280_humidity;BME280_pressure;Samples;Min_cycle;Max_cycle;Signal;HPM_P1;HPM_P2
2022/03/02 00:01:28;;;;;;;13.25;5.18;;;;;;;-0.89;43.32;101039.13;5074533;28;20036;-67
2022/03/02 00:03:54;;;;;;;25.48;6.50;;;;;;;-0.85;43.83;101055.75;5074204;28;20116;-66
2022/03/02 00:06:20;;;;;;;20.95;6.00;;;;;;;-0.86;43.85;101040.84;5074017;28;20112;-66
2022/03/02 00:08:45;;;;;;;17.85;5.50;;;;;;;-0.88;43.93;101040.88;5074518;28;20050;-68
2022/03/02 00:11:11;;;;;;;13.43;5.68;;;;;;;-0.88;43.97;101048.75;5073780;28;20043;-67
2022/03/02 00:13:37;;;;;;;20.55;5.45;;;;;;;-0.89;43.57;101038.28;5074326;28;20027;-68
2022/03/02 00:16:03;;;;;;;17.05;4.97;;;;;;;-0.88;43.89;101042.63;5074324;28;20079;-67
2022/03/02 00:18:29;;;;;;;17.10;5.10;;;;;;;-1.34;43.60;100981.91;5073823;28;20028;-67
2022/03/02 00:20:55;;;;;;;15.48;5.28;;;;;;;-0.90;43.80;101039.16;5074250;28;20540;-67
2022/03/02 00:23:20;;;;;;;15.10;4.75;;;;;;;-0.90;44.03;101033.91;5074101;28;20049;-67
2022/03/02 00:25:46;;;;;;;18.98;5.25;;;;;;;-0.92;44.33;101035.69;5073970;28;20032;-68
2022/03/02 00:28:11;;;;;;;19.17;4.82;;;;;;;-0.93;44.22;101029.53;5073973;28;20078;-66
2022/03/02 00:30:37;;;;;;;20.67;5.25;;;;;;;-0.95;44.21;101018.19;5074036;28;20048;-66
2022/03/02 00:33:02;;;;;;;14.15;5.07;;;;;;;-0.97;44.10;101019.97;5073696;28;20035;-66
2022/03/02 00:35:28;;;;;;;22.08;5.00;;;;;;;-0.98;43.93;101022.59;5073833;28;20457;-66
2022/03/02 00:37:53;;;;;;;18.02;4.90;;;;;;;-1.01;44.16;101029.63;5074030;28;20017;-65
2022/03/02 00:40:19;;;;;;;19.70;5.28;;;;;;;-1.07;44.36;101013.09;5073583;28;20115;-66
2022/03/02 00:42:45;;;;;;;23.90;5.45;;;;;;;-1.05;44.52;101022.69;5073437;28;20024;-66
2022/03/02 00:45:11;;;;;;;18.08;4.60;;;;;;;-1.04;44.86;101027.06;5073790;28;20143;-67
2022/03/02 00:47:37;;;;;;;14.95;4.38;;;;;;;-1.05;44.59;101027.09;5073326;28;20024;-65
2022/03/02 00:50:04;;;;;;;10.93;4.40;;;;;;;-1.06;44.38;101026.22;5073505;28;20146;-65
2022/03/02 00:52:30;;;;;;;15.93;4.57;;;;;;;-1.18;44.35;101010.63;5073279;28;20039;-67
2022/03/02 00:54:56;;;;;;;17.02;4.30;;;;;;;-1.09;44.27;101013.13;5073726;28;20432;-66
2022/03/02 00:57:21;;;;;;;7.10;4.07;;;;;;;-1.10;44.24;101014.00;5055756;28;20020;-63
2022/03/02 00:59:47;;;;;;;11.57;4.60;;;;;;;-1.10;44.00;101014.00;5073569;28;20078;-66
2022/03/02 01:02:12;;;;;;;9.32;3.92;;;;;;;-1.12;43.96;101018.41;5055516;28;20100;-68
2022/03/02 01:04:38;;;;;;;9.45;4.07;;;;;;;-1.18;44.50;101008.00;5073489;28;20338;-68
2022/03/02 01:07:04;;;;;;;14.05;3.92;;;;;;;-1.16;44.00;101014.94;5073529;28;20517;-66
2022/03/02 01:09:30;;;;;;;11.85;4.25;;;;;;;-1.17;44.59;101009.72;5073113;28;20345;-66
2022/03/02 01:11:56;;;;;;;15.38;4.18;;;;;;;-1.18;44.39;101018.50;5072881;28;20043;-67
2022/03/02 01:14:22;;;;;;;12.50;4.82;;;;;;;-1.20;44.48;101013.25;5055764;28;20116;-67
2022/03/02 01:16:48;;;;;;;14.15;4.25;;;;;;;-1.22;44.44;101015.03;5073552;28;20099;-66
2022/03/02 01:19:14;;;;;;;10.25;4.10;;;;;;;-1.27;44.71;101002.81;5072661;28;20120;-67
2022/03/02 01:21:39;;;;;;;13.15;4.18;;;;;;;-1.27;44.15;100995.81;5072897;28;20518;-67
2022/03/02 01:24:05;;;;;;;11.05;4.10;;;;;;;-1.28;45.00;100996.72;5073094;28;20048;-67
2022/03/02 01:26:31;;;;;;;7.35;3.83;;;;;;;-1.32;44.93;100990.63;5073149;28;20528;-68
2022/03/02 01:28:57;;;;;;;12.82;3.95;;;;;;;-1.36;44.81;100986.31;5072459;28;20089;-66
2022/03/02 01:31:24;;;;;;;8.82;3.78;;;;;;;-1.37;44.55;100992.44;5072724;28;20064;-67
2022/03/02 01:33:50;;;;;;;9.07;3.70;;;;;;;-1.38;44.63;101000.34;5055125;28;20020;-66
2022/03/02 01:36:17;;;;;;;9.13;3.60;;;;;;;-1.42;44.42;100996.91;5072933;28;20502;-66
2022/03/02 01:38:43;;;;;;;9.80;3.58;;;;;;;-1.44;43.60;100993.41;5072247;28;20346;-66
2022/03/02 01:41:09;;;;;;;12.30;3.63;;;;;;;-1.48;44.02;100981.19;5054415;28;20057;-66
2022/03/02 01:43:34;;;;;;;8.48;3.22;;;;;;;-1.44;43.55;100975.03;5072503;28;20046;-66
2022/03/02 01:46:00;;;;;;;12.80;3.50;;;;;;;-1.46;43.74;100979.41;5072071;28;20028;-65
2022/03/02 01:48:25;;;;;;;6.90;3.53;;;;;;;-1.48;43.85;100974.19;5071915;28;20024;-66
2022/03/02 01:50:51;;;;;;;14.07;3.90;;;;;;;-1.50;43.88;100962.84;5054463;28;20020;-66
2022/03/02 01:53:17;;;;;;;20.75;4.03;;;;;;;-1.53;43.37;100975.13;5071951;28;20024;-67
2022/03/02 01:55:43;;;;;;;14.30;3.53;;;;;;;-1.54;43.54;100973.38;5072001;28;20525;-65
2022/03/02 01:58:08;;;;;;;15.20;4.57;;;;;;;-1.79;43.88;100934.28;5071736;28;20028;-65
2022/03/02 02:00:34;;;;;;;16.73;3.88;;;;;;;-1.59;43.18;100969.06;5071093;28;20074;-66
2022/03/02 02:03:00;;;;;;;13.82;4.50;;;;;;;-1.57;43.96;100978.69;5071915;28;20047;-66
2022/03/02 02:05:26;;;;;;;12.55;3.63;;;;;;;-1.60;44.22;100962.06;5071838;28;20032;-64
2022/03/02 02:07:51;;;;;;;11.30;4.00;;;;;;;-1.67;43.44;100949.91;5054051;28;20029;-65
2022/03/02 02:10:17;;;;;;;13.20;4.15;;;;;;;-1.68;43.89;100957.78;5072131;28;20109;-66
2022/03/02 02:12:43;;;;;;;12.52;3.72;;;;;;;-1.61;43.52;100955.09;5071733;28;20028;-66
2022/03/02 02:15:09;;;;;;;8.32;3.55;;;;;;;-1.65;44.12;100948.13;5071490;28;20050;-66
2022/03/02 02:17:35;;;;;;;10.20;3.45;;;;;;;-1.68;44.02;100953.44;5072270;28;20151;-65
2022/03/02 02:20:02;;;;;;;12.63;4.15;;;;;;;-1.66;44.44;100956.00;5071829;28;20029;-66
2022/03/02 02:22:28;;;;;;;12.43;3.97;;;;;;;-1.66;44.39;100946.41;5071478;28;20072;-65
2022/03/02 02:24:54;;;;;;;10.30;3.50;;;;;;;-1.69;44.17;100956.06;5054268;28;20127;-66
2022/03/02 02:27:19;;;;;;;13.10;4.03;;;;;;;-1.71;44.48;100947.31;5071427;28;20358;-66
2022/03/02 02:29:47;;;;;;;9.98;3.70;;;;;;;-1.71;44.34;100932.44;5053456;28;20039;-67
2022/03/02 02:32:13;;;;;;;8.20;3.75;;;;;;;-1.66;45.02;100940.25;5071605;28;20414;-67
2022/03/02 02:34:40;;;;;;;16.02;4.68;;;;;;;-1.64;45.90;100936.75;5071427;28;20122;-67
2022/03/02 02:37:07;;;;;;;9.32;3.33;;;;;;;-1.65;44.52;100937.63;5053362;28;20029;-66
2022/03/02 02:39:35;;;;;;;12.00;4.63;;;;;;;-1.89;44.96;100891.50;5070888;28;20037;-66
2022/03/02 02:42:08;;;;;;;9.35;3.63;;;;;;;-1.61;44.84;100934.06;5071716;28;20024;-65
2022/03/02 02:44:35;;;;;;;6.72;3.40;;;;;;;-1.65;44.88;100932.38;5071550;28;20030;-67
2022/03/02 02:47:01;;;;;;;8.07;3.40;;;;;;;-1.66;45.64;100929.75;5053289;28;20028;-67
2022/03/02 02:49:27;;;;;;;9.55;3.40;;;;;;;-1.65;45.02;100921.00;5071683;28;20391;-68
2022/03/02 02:51:54;;;;;;;8.80;3.85;;;;;;;-1.70;45.26;100921.03;5071881;28;20025;-66
2022/03/02 02:54:20;;;;;;;8.07;3.67;;;;;;;-1.70;44.97;100910.53;5053090;28;20025;-67
2022/03/02 02:56:46;;;;;;;10.32;3.40;;;;;;;-1.67;45.05;100915.78;5071069;28;20111;-67
2022/03/02 02:59:12;;;;;;;10.93;3.65;;;;;;;-1.68;45.16;100921.03;5071737;28;20112;-66
2022/03/02 03:01:37;;;;;;;10.70;3.65;;;;;;;-1.77;45.23;100912.38;5071472;28;20141;-67
2022/03/02 03:04:03;;;;;;;9.88;3.88;;;;;;;-1.79;44.75;100900.16;5053187;28;20025;-68
2022/03/02 03:06:29;;;;;;;14.10;3.78;;;;;;;-1.75;45.52;100902.72;5070796;28;20024;-64
2022/03/02 03:08:55;;;;;;;8.57;4.20;;;;;;;-1.77;45.74;100906.25;5071665;28;20594;-66
2022/03/02 03:11:21;;;;;;;10.13;3.85;;;;;;;-1.75;45.97;100904.47;5073693;28;20398;-68
2022/03/02 03:13:46;;;;;;;6.30;3.28;;;;;;;-1.78;46.63;100899.25;5075101;28;20029;-67
2022/03/02 03:16:12;;;;;;;8.38;3.92;;;;;;;-1.75;46.33;100892.22;5075010;28;20029;-68
2022/03/02 03:18:37;;;;;;;12.05;4.13;;;;;;;-2.19;46.20;100814.91;5075472;28;20032;-66
2022/03/02 03:21:03;;;;;;;12.48;3.83;;;;;;;-1.77;45.56;100888.75;5057648;28;20360;-67
2022/03/02 03:23:30;;;;;;;10.25;3.83;;;;;;;-1.74;46.30;100899.22;5075368;28;20087;-67
2022/03/02 03:25:57;;;;;;;14.70;4.82;;;;;;;-1.77;46.31;100890.50;5074841;28;20045;-67
2022/03/02 03:28:22;;;;;;;8.50;4.15;;;;;;;-1.81;46.57;100883.56;5075074;28;20028;-68
2022/03/02 03:30:47;;;;;;;16.95;6.70;;;;;;;-1.77;45.96;100890.50;5075263;28;20036;-67
2022/03/02 03:33:13;;;;;;;14.68;5.82;;;;;;;-1.80;45.64;100890.53;5075018;28;20374;-67
2022/03/02 03:35:38;;;;;;;13.77;6.85;;;;;;;-1.78;46.01;100891.38;5074813;28;20031;-66
2022/03/02 03:38:04;;;;;;;17.95;7.10;;;;;;;-2.02;46.07;100859.28;5074915;28;20028;-65
2022/03/02 03:40:30;;;;;;;17.35;7.97;;;;;;;-1.84;46.46;100884.44;5075036;28;20489;-66
2022/03/02 03:42:55;;;;;;;16.85;8.90;;;;;;;-1.80;46.20;100882.66;5074633;28;20031;-67
2022/03/02 03:45:22;;;;;;;17.02;8.65;;;;;;;-2.07;46.36;100840.97;5057043;28;20016;-67
2022/03/02 03:47:48;;;;;;;18.13;7.93;;;;;;;-2.03;46.43;100858.44;5074195;28;20028;-67
2022/03/02 03:50:14;;;;;;;16.23;7.20;;;;;;;-1.86;46.33;100873.09;5074106;28;20075;-66
2022/03/02 03:52:41;;;;;;;14.60;6.88;;;;;;;-1.86;46.65;100873.09;5074384;28;20425;-66
2022/03/02 03:55:08;;;;;;;18.77;6.57;;;;;;;-1.86;46.10;100877.50;5074022;28;20387;-65
2022/03/02 03:57:33;;;;;;;11.88;5.55;;;;;;;-1.91;46.36;100878.44;5074396;28;20023;-66
2022/03/02 03:59:59;;;;;;;15.48;6.53;;;;;;;-1.86;45.99;100877.50;5074448;28;20440;-66
2022/03/02 04:02:25;;;;;;;12.98;5.05;;;;;;;-1.84;45.66;100876.56;5074124;28;20533;-66
2022/03/02 04:04:50;;;;;;;11.10;5.55;;;;;;;-1.82;45.87;100880.03;5074610;28;20369;-65
2022/03/02 04:07:16;;;;;;;20.90;5.25;;;;;;;-1.89;46.31;100866.16;5074087;28;20028;-66
2022/03/02 04:09:41;;;;;;;12.48;4.85;;;;;;;-1.89;45.85;100860.00;5074166;28;20024;-67
2022/03/02 04:12:07;;;;;;;10.70;4.50;;;;;;;-1.81;45.81;100873.06;5074200;28;20028;-65
2022/03/02 04:14:33;;;;;;;11.57;4.55;;;;;;;-1.82;46.16;100876.56;5074323;28;20044;-68
2022/03/02 04:16:58;;;;;;;12.65;4.18;;;;;;;-1.90;46.33;100853.91;5073994;28;20017;-66
2022/03/02 04:19:24;;;;;;;15.52;4.65;;;;;;;-1.92;45.93;100855.69;5074167;28;20030;-66
2022/03/02 04:21:49;;;;;;;9.65;4.18;;;;;;;-1.81;45.34;100873.06;5073740;28;20449;-67
2022/03/02 04:24:15;;;;;;;13.20;4.28;;;;;;;-1.79;45.45;100868.66;5073121;28;20052;-66
2022/03/02 04:26:40;;;;;;;9.98;4.05;;;;;;;-1.78;45.59;100865.13;5073629;28;20032;-68
2022/03/02 04:29:06;;;;;;;15.00;3.97;;;;;;;-1.78;45.22;100855.50;5073934;28;20376;-66
2022/03/02 04:31:31;;;;;;;12.75;4.13;;;;;;;-1.75;44.67;100865.97;5073463;28;20038;-67
2022/03/02 04:33:57;;;;;;;10.77;4.18;;;;;;;-1.67;45.17;100867.63;5073266;28;20020;-66
2022/03/02 04:36:23;;;;;;;10.52;4.20;;;;;;;-1.65;45.34;100871.97;5074033;28;20104;-66
2022/03/02 04:38:48;;;;;;;15.70;4.82;;;;;;;-1.63;44.85;100862.31;5073483;28;20070;-66
2022/03/02 04:41:14;;;;;;;17.65;4.63;;;;;;;-1.57;45.40;100858.72;5055494;28;20029;-66
2022/03/02 04:43:39;;;;;;;13.90;4.70;;;;;;;-1.51;45.29;100865.66;5073518;28;20020;-67
2022/03/02 04:46:05;;;;;;;10.02;4.60;;;;;;;-1.54;45.26;100853.44;5073954;28;20396;-65
2022/03/02 04:48:31;;;;;;;12.60;4.70;;;;;;;-1.46;44.98;100853.31;5073943;28;20023;-69
2022/03/02 04:50:57;;;;;;;22.30;4.70;;;;;;;-1.39;44.81;100855.00;5073550;28;20028;-68
2022/03/02 04:53:23;;;;;;;13.10;5.85;;;;;;;-1.30;44.78;100857.47;5073500;28;20098;-67
2022/03/02 04:55:50;;;;;;;22.85;6.68;;;;;;;-1.22;44.33;100856.47;5073478;28;20481;-67
2022/03/02 04:58:17;;;;;;;23.88;6.13;;;;;;;-1.13;44.68;100861.63;5073551;28;20020;-66
2022/03/02 05:00:43;;;;;;;22.20;6.10;;;;;;;-1.05;43.76;100856.25;5073287;28;20020;-69
2022/03/02 05:03:08;;;;;;;19.85;5.97;;;;;;;-0.11;42.60;100855.47;5073177;28;20039;-67
2022/03/02 05:05:36;;;;;;;22.05;5.47;;;;;;;1.85;39.06;100844.69;5073627;28;20373;-69
2022/03/02 05:08:02;;;;;;;16.45;5.20;;;;;;;3.77;34.89;100843.97;5073360;28;20119;-68
2022/03/02 05:10:29;;;;;;;28.48;7.38;;;;;;;4.94;33.21;100846.59;5072703;28;20081;-66
2022/03/02 05:12:55;;;;;;;15.13;6.95;;;;;;;5.86;30.73;100846.25;5072774;28;20116;-68
2022/03/02 05:15:21;;;;;;;20.90;6.15;;;;;;;6.42;29.67;100837.59;5073188;28;20064;-67
2022/03/02 05:17:49;;;;;;;27.42;6.75;;;;;;;7.18;28.67;100833.91;5073246;28;20442;-66
2022/03/02 05:20:15;;;;;;;17.15;5.57;;;;;;;8.22;27.25;100827.69;5054750;28;20020;-64
2022/03/02 05:22:41;;;;;;;13.38;5.85;;;;;;;9.36;25.58;100816.81;5072820;28;20048;-69
2022/03/02 05:25:08;;;;;;;25.95;6.60;;;;;;;10.95;23.66;100822.09;5072996;28;20032;-67
2022/03/02 05:27:34;;;;;;;20.42;6.95;;;;;;;12.59;21.65;100822.47;5073012;28;20064;-71
2022/03/02 05:30:00;;;;;;;24.33;6.10;;;;;;;13.96;20.15;100813.06;5072425;28;20059;-71
2022/03/02 05:32:27;;;;;;;17.58;6.03;;;;;;;15.13;18.32;100798.28;5072523;28;20100;-71
2022/03/02 05:34:53;;;;;;;13.00;6.03;;;;;;;16.07;17.66;100802.84;5071921;28;20031;-68
2022/03/02 05:37:19;;;;;;;22.45;5.90;;;;;;;16.91;16.38;100804.34;5072389;28;20379;-69
2022/03/02 05:39:45;;;;;;;19.98;5.70;;;;;;;17.72;15.42;100785.19;5071871;28;20021;-68
2022/03/02 05:42:10;;;;;;;18.45;5.60;;;;;;;18.83;14.48;100805.22;5072160;28;20104;-69
2022/03/02 05:44:36;;;;;;;18.10;5.68;;;;;;;19.64;13.74;100809.66;5072540;28;20449;-67
2022/03/02 05:47:02;;;;;;;16.27;5.85;;;;;;;20.30;13.11;100805.63;5072156;28;20469;-68
2022/03/02 05:49:28;;;;;;;15.75;6.10;;;;;;;21.08;12.32;100804.47;5037465;28;20465;-68
2022/03/02 05:51:54;;;;;;;16.88;5.47;;;;;;;21.74;12.26;100813.69;5072021;28;20111;-69
2022/03/02 05:54:19;;;;;;;16.77;5.75;;;;;;;22.37;11.40;100811.94;5072090;28;20030;-67
2022/03/02 05:56:44;;;;;;;17.55;6.43;;;;;;;22.87;10.97;100786.25;5071840;28;20055;-69
2022/03/02 05:59:12;;;;;;;17.38;5.72;;;;;;;23.58;10.79;100802.41;5071564;28;20099;-67
2022/03/02 06:01:38;;;;;;;15.23;4.93;;;;;;;23.87;10.33;100788.97;5072427;28;20016;-67
2022/03/02 06:04:08;;;;;;;20.58;5.82;;;;;;;24.39;9.76;100792.66;5071780;28;20055;-69
2022/03/02 06:06:35;;;;;;;17.95;6.05;;;;;;;25.20;9.05;100790.78;5071971;28;20425;-66
2022/03/02 06:09:06;;;;;;;16.35;6.22;;;;;;;25.94;8.89;100791.34;5071584;28;20024;-69
2022/03/02 06:11:33;;;;;;;18.65;5.72;;;;;;;26.20;8.42;100790.66;5071162;28;20024;-68
2022/03/02 06:13:59;;;;;;;18.45;6.05;;;;;;;26.74;8.04;100795.50;5071477;28;20541;-67
2022/03/02 06:16:25;;;;;;;28.00;7.15;;;;;;;27.36;7.82;100776.13;5071658;28;20024;-69
2022/03/02 06:18:51;;;;;;;16.60;6.95;;;;;;;27.97;7.56;100776.03;5036622;28;20370;-68
2022/03/02 06:21:22;;;;;;;26.25;7.38;;;;;;;28.54;7.37;100778.19;5071554;28;20052;-69
2022/03/02 06:23:48;;;;;;;43.20;7.60;;;;;;;28.71;7.38;100776.59;5053700;28;20040;-69
2022/03/02 06:26:14;;;;;;;21.67;7.32;;;;;;;29.08;6.94;100765.75;5070980;28;20037;-69
2022/03/02 06:28:39;;;;;;;29.60;8.25;;;;;;;29.45;6.26;100758.69;5071311;28;20020;-68
2022/03/02 06:31:04;;;;;;;29.35;8.45;;;;;;;29.94;6.13;100770.69;5071808;28;20029;-70
2022/03/02 06:33:30;;;;;;;28.45;8.30;;;;;;;30.35;6.34;100762.78;5071930;28;20389;-68
2022/03/02 06:35:55;;;;;;;25.73;8.50;;;;;;;30.52;5.93;100767.66;5071026;28;20020;-67
2022/03/02 06:38:22;;;;;;;22.58;8.85;;;;;;;30.81;6.05;100758.75;5071271;28;20407;-68
2022/03/02 06:41:04;;;;;;;26.88;8.65;;;;;;;31.85;5.74;100762.97;5071657;28;20028;-69
2022/03/02 06:43:36;;;;;;;27.30;9.07;;;;;;;31.80;5.49;100757.28;5071142;28;20028;-69
2022/03/02 06:46:16;;;;;;;21.48;8.43;;;;;;;32.40;5.18;100758.00;5070715;28;20029;-67
2022/03/02 06:48:51;;;;;;;24.17;9.05;;;;;;;32.62;5.33;100754.53;5070870;28;20028;-67
2022/03/02 06:51:21;;;;;;;28.38;8.77;;;;;;;32.87;5.26;100748.59;5071548;28;20021;-68
2022/03/02 06:53:47;;;;;;;27.48;8.65;;;;;;;32.57;5.06;100718.41;5071079;28;20477;-67
2022/03/02 06:56:15;;;;;;;22.13;8.02;;;;;;;33.09;4.86;100745.09;5070636;28;20032;-67
2022/03/02 06:58:47;;;;;;;21.02;8.60;;;;;;;33.49;4.39;100734.91;5070975;28;20462;-67
2022/03/02 07:01:16;;;;;;;25.77;9.13;;;;;;;33.84;4.75;100739.28;5071517;28;20033;-66
2022/03/02 07:03:48;;;;;;;19.73;8.18;;;;;;;34.54;4.32;100744.28;5071310;28;20524;-67
2022/03/02 07:06:15;;;;;;;33.88;8.77;;;;;;;34.37;4.21;100749.94;5070612;28;20051;-67
2022/03/02 07:08:51;;;;;;;22.90;7.75;;;;;;;34.77;4.29;100732.00;5053292;28;20473;-68
2022/03/02 07:11:17;;;;;;;19.38;8.77;;;;;;;34.49;4.11;100725.63;5071596;28;20025;-68
2022/03/02 07:13:46;;;;;;;27.08;8.85;;;;;;;34.66;4.02;100738.56;5071200;28;20031;-66
2022/03/02 07:16:13;;;;;;;17.67;7.65;;;;;;;34.88;3.93;100732.94;5070410;28;20027;-68
2022/03/02 07:18:39;;;;;;;21.75;7.90;;;;;;;34.97;3.87;100730.50;5070931;28;20028;-69
2022/03/02 07:21:11;;;;;;;20.80;7.55;;;;;;;35.66;3.89;100724.31;5071264;28;20020;-69
2022/03/02 07:23:47;;;;;;;361.52;22.52;;;;;;;35.90;4.18;100736.66;5070675;28;20501;-68
2022/03/02 07:26:17;;;;;;;30.60;8.85;;;;;;;35.69;3.60;100716.25;5070731;28;20374;-68
2022/03/02 07:28:46;;;;;;;28.70;8.55;;;;;;;35.80;3.22;100717.13;5070787;28;20020;-72
2022/03/02 07:31:13;;;;;;;29.27;9.07;;;;;;;35.64;3.38;100703.13;5052998;28;20016;-68
2022/03/02 07:33:42;;;;;;;19.85;8.05;;;;;;;35.43;3.41;100718.88;5061445;28;20033;-72
2022/03/02 07:36:10;;;;;;;32.83;7.75;;;;;;;35.02;4.08;100721.38;5067722;28;20025;-69
2022/03/02 07:38:35;;;;;;;23.27;7.57;;;;;;;34.72;3.89;100720.81;5016101;28;20112;-70
2022/03/02 07:41:06;;;;;;;34.38;8.35;;;;;;;34.68;4.18;100694.66;5050396;28;20160;-69
2022/03/02 07:43:32;;;;;;;31.75;8.23;;;;;;;34.31;3.94;100717.63;5032549;28;20206;-70
2022/03/02 07:45:57;;;;;;;28.65;7.90;;;;;;;34.09;4.15;100712.94;5050666;28;20581;-70
2022/03/02 07:48:23;;;;;;;25.23;7.90;;;;;;;33.96;4.28;100705.00;5059836;28;20025;-70
2022/03/02 07:50:49;;;;;;;23.38;7.88;;;;;;;33.55;4.63;100711.69;5069169;28;20154;-70
2022/03/02 07:53:16;;;;;;;22.90;7.05;;;;;;;33.26;4.70;100700.69;5069216;28;20024;-67
2022/03/02 07:55:46;;;;;;;27.90;8.88;;;;;;;32.99;4.50;100706.94;5071059;28;20028;-71
2022/03/02 07:58:11;;;;;;;21.73;7.32;;;;;;;31.68;5.25;100701.09;5072038;28;20028;-69
2022/03/02 08:00:37;;;;;;;19.92;7.72;;;;;;;29.74;5.98;100696.38;5073928;28;20410;-70
2022/03/02 08:03:06;;;;;;;23.45;7.80;;;;;;;27.17;7.56;100695.34;5074543;28;20487;-71
2022/03/02 08:05:32;;;;;;;18.83;7.00;;;;;;;24.02;9.25;100687.78;5073997;28;20453;-71
2022/03/02 08:07:59;;;;;;;27.60;7.35;;;;;;;21.40;11.00;100683.94;5073928;28;20098;-70
2022/03/02 08:10:26;;;;;;;26.42;7.18;;;;;;;19.08;12.82;100674.22;5074251;28;20026;-72
2022/03/02 08:12:52;;;;;;;25.67;8.10;;;;;;;17.19;14.58;100681.91;5074158;28;20032;-69
2022/03/02 08:15:18;;;;;;;28.23;11.20;;;;;;;15.63;15.88;100668.06;5073773;28;20021;-68
2022/03/02 08:17:44;;;;;;;27.48;10.82;;;;;;;14.57;16.93;100685.13;5074176;28;20031;-68
2022/03/02 08:20:12;;;;;;;32.35;11.68;;;;;;;13.51;18.00;100676.66;5074279;28;20031;-70
2022/03/02 08:22:44;;;;;;;31.20;10.93;;;;;;;12.70;19.33;100681.97;5073303;28;20067;-69
2022/03/02 08:25:11;;;;;;;28.00;10.90;;;;;;;12.09;19.77;100675.72;5065096;28;20033;-69
2022/03/02 08:27:39;;;;;;;34.03;11.10;;;;;;;11.45;20.90;100669.50;5064835;28;20024;-67
2022/03/02 08:30:06;;;;;;;25.48;10.00;;;;;;;10.85;21.58;100663.78;5046162;28;20025;-74
2022/03/02 08:32:37;;;;;;;30.90;10.18;;;;;;;10.47;22.05;100654.72;5043869;28;20423;-66
2022/03/02 08:35:04;;;;;;;31.20;10.25;;;;;;;10.17;22.44;100647.72;5067438;28;20366;-70
2022/03/02 08:37:31;;;;;;;25.50;8.43;;;;;;;10.04;22.56;100645.00;5065842;28;20462;-69
2022/03/02 08:39:57;;;;;;;29.42;8.80;;;;;;;9.96;23.22;100652.66;5053159;28;20025;-70
2022/03/02 08:42:22;;;;;;;19.98;7.95;;;;;;;9.89;23.41;100638.84;5035564;28;20021;-67
2022/03/02 08:44:48;;;;;;;21.30;7.85;;;;;;;9.89;23.37;100637.97;5053623;28;20032;-65
2022/03/02 08:47:14;;;;;;;25.98;8.35;;;;;;;9.79;23.82;100642.22;5053895;28;20021;-67
2022/03/02 08:49:40;;;;;;;20.75;7.43;;;;;;;9.73;23.43;100632.75;5053155;28;20485;-67
2022/03/02 08:52:06;;;;;;;34.40;8.38;;;;;;;9.67;24.14;100633.16;5052878;28;20142;-68
2022/03/02 08:54:39;;;;;;;26.00;8.35;;;;;;;9.69;23.51;100618.72;5053373;28;20074;-68
2022/03/02 08:57:05;;;;;;;22.63;8.00;;;;;;;9.59;23.90;100626.47;5054689;28;20404;-71
2022/03/02 08:59:34;;;;;;;28.08;8.57;;;;;;;9.48;24.03;100610.25;5072697;28;20021;-66
2022/03/02 09:02:02;;;;;;;25.80;8.23;;;;;;;9.51;24.19;100615.41;5072684;28;20446;-67
2022/03/02 09:04:30;;;;;;;29.35;8.52;;;;;;;9.49;24.10;100617.31;5049754;28;20032;-68
2022/03/02 09:06:56;;;;;;;38.88;9.00;;;;;;;9.44;25.05;100620.28;5072707;28;20032;-70
2022/03/02 09:09:21;;;;;;;22.15;8.48;;;;;;;9.41;24.54;100603.59;5072803;28;20032;-67
2022/03/02 09:11:47;;;;;;;31.38;9.25;;;;;;;9.45;24.57;100594.41;5072668;28;20096;-71
2022/03/02 09:14:13;;;;;;;20.30;8.80;;;;;;;9.45;24.60;100594.41;5072944;28;20044;-68
2022/03/02 09:16:39;;;;;;;25.27;8.23;;;;;;;9.56;24.92;100585.72;5072925;28;20032;-69
2022/03/02 09:19:07;;;;;;;23.45;8.93;;;;;;;9.58;24.85;100592.66;5055192;28;20024;-67
2022/03/02 09:21:33;;;;;;;20.35;8.68;;;;;;;9.49;24.34;100582.56;5072266;28;20025;-69
2022/03/02 09:23:59;;;;;;;24.50;8.10;;;;;;;9.28;24.98;100572.28;5072362;28;20045;-69
2022/03/02 09:26:26;;;;;;;27.77;8.60;;;;;;;9.27;25.15;100581.25;5072573;28;20058;-70
2022/03/02 09:28:52;;;;;;;26.60;7.93;;;;;;;9.19;25.12;100578.22;5072301;28;20029;-68
2022/03/02 09:31:20;;;;;;;28.10;8.68;;;;;;;9.16;25.11;100594.41;5072428;28;20033;-68
2022/03/02 09:33:49;;;;;;;29.30;8.20;;;;;;;9.11;25.87;100580.50;5071029;28;20115;-69
2022/03/02 09:36:21;;;;;;;30.70;7.47;;;;;;;9.14;25.10;100574.97;5053722;28;20024;-69
2022/03/02 09:38:48;;;;;;;22.73;6.95;;;;;;;9.09;25.12;100579.75;5071934;28;20457;-70
2022/03/02 09:41:29;;;;;;;25.92;6.65;;;;;;;9.09;24.97;100571.72;5071994;28;20048;-69
2022/03/02 09:43:59;;;;;;;19.77;6.47;;;;;;;9.07;24.86;100565.63;5071850;28;20028;-68
2022/03/02 09:46:33;;;;;;;19.73;6.75;;;;;;;9.08;25.50;100564.66;5071927;28;20024;-69
2022/03/02 09:49:05;;;;;;;20.63;6.55;;;;;;;9.00;25.34;100558.00;5072145;28;20028;-70
2022/03/02 09:51:32;;;;;;;19.13;6.65;;;;;;;8.91;25.31;100561.22;5072160;28;20107;-68
2022/03/02 09:54:01;;;;;;;13.90;5.93;;;;;;;8.89;25.61;100555.13;5071924;28;20454;-69
2022/03/02 09:56:29;;;;;;;14.95;6.22;;;;;;;8.55;25.96;100503.81;5071769;28;20035;-70
2022/03/02 09:58:55;;;;;;;20.08;6.28;;;;;;;8.79;25.71;100564.66;5054134;28;20024;-70
2022/03/02 10:01:23;;;;;;;17.58;6.32;;;;;;;8.79;25.77;100551.31;5071946;28;20090;-72
2022/03/02 10:03:50;;;;;;;20.90;6.15;;;;;;;8.82;26.01;100553.78;5071503;28;20067;-70
2022/03/02 10:06:20;;;;;;;13.15;6.55;;;;;;;8.88;26.13;100546.25;5072011;28;20106;-70
2022/03/02 10:08:49;;;;;;;16.50;6.80;;;;;;;8.89;26.24;100547.09;5053589;28;20036;-73
2022/03/02 10:11:19;;;;;;;17.67;7.68;;;;;;;8.84;26.28;100544.75;5071535;28;20025;-68
2022/03/02 10:13:45;;;;;;;20.95;7.07;;;;;;;8.83;26.80;100542.16;5071906;28;20028;-71
2022/03/02 10:16:26;;;;;;;23.52;7.90;;;;;;;8.89;26.50;100544.44;5071528;28;20024;-70
2022/03/02 10:18:56;;;;;;;23.08;7.53;;;;;;;8.71;26.65;100527.75;5070894;28;20142;-70
2022/03/02 10:21:28;;;;;;;17.10;7.40;;;;;;;8.61;26.64;100540.81;5071298;28;20021;-71
2022/03/02 10:23:59;;;;;;;22.08;6.85;;;;;;;8.53;26.75;100516.41;5059358;28;20382;-67
2022/03/02 10:26:28;;;;;;;23.63;7.15;;;;;;;8.61;27.09;100527.47;5071075;28;20392;-70
2022/03/02 10:29:09;;;;;;;25.75;6.97;;;;;;;8.73;26.31;100513.38;5071102;28;20028;-69
2022/03/02 10:31:45;;;;;;;18.05;7.50;;;;;;;8.79;26.69;100516.59;5071620;28;20024;-71
2022/03/02 10:34:30;;;;;;;18.70;6.65;;;;;;;8.84;26.50;100503.81;5071280;28;20108;-70
2022/03/02 10:37:09;;;;;;;16.83;7.53;;;;;;;8.89;26.31;100507.06;5070832;28;20110;-69
2022/03/02 10:39:49;;;;;;;25.17;7.55;;;;;;;8.81;27.09;100504.88;5070932;28;20095;-68
2022/03/02 10:42:36;;;;;;;21.67;8.13;;;;;;;8.71;26.60;100466.34;5068590;28;20038;-70
2022/03/02 10:45:06;;;;;;;22.63;8.15;;;;;;;8.88;26.22;100498.19;5070330;28;20082;-69
2022/03/02 10:47:38;;;;;;;18.33;7.35;;;;;;;8.78;26.89;100491.69;5070520;28;20024;-71
2022/03/02 10:50:05;;;;;;;26.10;7.68;;;;;;;8.64;26.88;100481.03;5070403;28;20075;-70
2022/03/02 10:52:35;;;;;;;18.95;6.80;;;;;;;8.55;26.92;100480.63;5070945;28;20052;-68
2022/03/02 10:55:05;;;;;;;17.20;7.47;;;;;;;8.58;27.00;100487.59;5051264;28;20024;-70
2022/03/02 10:57:32;;;;;;;15.93;7.38;;;;;;;8.61;27.11;100487.41;5069843;28;20111;-70
2022/03/02 11:00:05;;;;;;;19.55;7.60;;;;;;;8.65;26.81;100478.25;5070798;28;20024;-69
2022/03/02 11:02:33;;;;;;;18.73;7.07;;;;;;;8.57;27.42;100472.56;5070152;28;20032;-68
2022/03/02 11:05:02;;;;;;;19.88;7.50;;;;;;;8.54;27.48;100475.41;5052839;28;20416;-66
2022/03/02 11:07:28;;;;;;;21.45;7.43;;;;;;;8.51;26.88;100470.28;5070191;28;20052;-68
2022/03/02 11:09:54;;;;;;;20.45;7.22;;;;;;;8.52;27.41;100466.66;5071322;28;20083;-67
2022/03/02 11:12:20;;;;;;;15.98;7.50;;;;;;;8.47;27.31;100462.44;5071153;28;20082;-67
2022/03/02 11:15:03;;;;;;;25.55;7.90;;;;;;;8.59;27.03;100465.31;5070492;28;20033;-68
2022/03/02 11:17:30;;;;;;;18.75;8.32;;;;;;;8.58;27.75;100466.25;5052628;28;20032;-67
2022/03/02 11:19:57;;;;;;;14.85;7.57;;;;;;;8.55;27.27;100450.44;5071208;28;20465;-68
2022/03/02 11:22:27;;;;;;;16.33;7.53;;;;;;;8.61;27.46;100450.06;5070712;28;20071;-67